createdAt,value
2019-03-17T00:03:12.933Z,1012.3
2019-03-17T00:08:12.923Z,1012.3
2019-03-17T00:13:13.146Z,1012.3
2019-03-17T00:18:12.963Z,1012.4
2019-03-17T00:23:12.964Z,1012.4
2019-03-17T00:28:13.163Z,1012.3
2019-03-17T00:33:13.062Z,1012.3
2019-03-17T00:38:12.984Z,1012.2
2019-03-17T00:43:13.006Z,1012.2
2019-03-17T00:48:12.993Z,1012.1
2019-03-17T00:53:13.244Z,1012
2019-03-17T00:58:12.985Z,1012
2019-03-17T01:03:12.961Z,1012
2019-03-17T01:08:13.086Z,1012
2019-03-17T01:13:13.104Z,1012
2019-03-17T01:18:12.971Z,1011.9
2019-03-17T01:23:12.958Z,1012
2019-03-17T01:28:12.991Z,1012.1
2019-03-17T01:33:12.965Z,1012.1
2019-03-17T01:38:12.984Z,1012.1
2019-03-17T01:43:13.130Z,1012.1
2019-03-17T01:48:13.000Z,1012.1
2019-03-17T01:53:12.962Z,1012.1
2019-03-17T01:58:13.128Z,1012
2019-03-17T02:03:13.191Z,1012
2019-03-17T02:08:13.199Z,1012
2019-03-17T02:13:17.615Z,1011.9
2019-03-17T02:18:17.801Z,1011.9
2019-03-17T02:23:17.719Z,1012
2019-03-17T02:28:17.542Z,1011.9
2019-03-17T02:33:17.752Z,1011.8
2019-03-17T02:38:17.618Z,1011.8
2019-03-17T02:43:17.841Z,1011.8
2019-03-17T02:48:17.596Z,1011.8
2019-03-17T02:53:17.722Z,1011.7
2019-03-17T02:58:17.619Z,1011.8
2019-03-17T03:03:17.613Z,1011.8
2019-03-17T03:08:17.870Z,1011.7
2019-03-17T03:13:17.760Z,1011.8
2019-03-17T03:18:17.885Z,1011.8
2019-03-17T03:23:17.846Z,1011.7
2019-03-17T03:28:17.631Z,1011.7
2019-03-17T03:33:17.644Z,1011.6
2019-03-17T03:38:17.849Z,1011.5
2019-03-17T03:43:17.634Z,1011.6
2019-03-17T03:48:17.831Z,1011.6
2019-03-17T03:53:17.831Z,1011.4
2019-03-17T03:58:17.658Z,1011.4
2019-03-17T04:03:17.828Z,1011.6
2019-03-17T04:08:17.613Z,1011.6
2019-03-17T04:13:17.882Z,1011.7
2019-03-17T04:18:17.785Z,1011.6
2019-03-17T04:23:17.830Z,1011.6
2019-03-17T04:28:17.862Z,1011.6
2019-03-17T04:33:17.695Z,1011.5
2019-03-17T04:38:17.786Z,1011.6
2019-03-17T04:43:17.652Z,1011.5
2019-03-17T04:48:17.643Z,1011.5
2019-03-17T04:53:17.831Z,1011.5
2019-03-17T04:58:17.880Z,1011.6
2019-03-17T05:03:17.625Z,1011.6
2019-03-17T05:08:17.837Z,1011.6
2019-03-17T05:13:17.666Z,1011.5
2019-03-17T05:18:17.679Z,1011.5
2019-03-17T05:23:17.816Z,1011.4
2019-03-17T05:28:17.686Z,1011.5
2019-03-17T05:33:17.652Z,1011.5
2019-03-17T05:38:17.684Z,1011.6
2019-03-17T05:43:17.887Z,1011.6
2019-03-17T05:48:17.681Z,1011.7
2019-03-17T05:53:17.847Z,1011.7
2019-03-17T05:58:17.680Z,1011.7
2019-03-17T06:03:17.927Z,1011.7
2019-03-17T06:08:17.703Z,1011.6
2019-03-17T06:13:17.854Z,1011.6
2019-03-17T06:18:17.819Z,1011.9
2019-03-17T06:23:17.703Z,1011.7
2019-03-17T06:28:17.748Z,1011.5
2019-03-17T06:33:17.904Z,1011.3
2019-03-17T06:38:17.923Z,1011.3
2019-03-17T06:43:17.850Z,1011.3
2019-03-17T06:48:17.891Z,1011.4
2019-03-17T06:53:18.107Z,1011.3
2019-03-17T06:58:17.672Z,1011.3
2019-03-17T07:03:17.726Z,1011.1
2019-03-17T07:08:17.712Z,1011.1
2019-03-17T07:13:17.734Z,1010.9
2019-03-17T07:18:17.792Z,1010.9
2019-03-17T07:23:17.765Z,1011
2019-03-17T07:28:17.755Z,1010.9
2019-03-17T07:33:17.804Z,1010.8
2019-03-17T07:38:17.712Z,1010.5
2019-03-17T07:43:17.752Z,1010.4
2019-03-17T07:48:17.812Z,1010.4
2019-03-17T07:53:17.795Z,1010.4
2019-03-17T07:58:17.769Z,1010.2
2019-03-17T08:03:17.790Z,1010.2
2019-03-17T08:08:17.768Z,1010
2019-03-17T08:13:17.775Z,1009.9
2019-03-17T08:18:17.781Z,1009.9
2019-03-17T08:23:17.777Z,1009.8
2019-03-17T08:28:17.826Z,1009.7
2019-03-17T08:33:17.715Z,1009.7
2019-03-17T08:38:22.642Z,1009.5
2019-03-17T08:43:17.784Z,1009.3
2019-03-17T08:48:17.786Z,1009.3
2019-03-17T08:53:17.798Z,1009.1
2019-03-17T08:58:17.790Z,1009.1
2019-03-17T09:03:17.795Z,1009.1
2019-03-17T09:08:17.797Z,1009
2019-03-17T09:13:19.204Z,1008.9
2019-03-17T09:18:18.252Z,1008.9
2019-03-17T09:23:18.267Z,1008.7
2019-03-17T09:28:17.997Z,1008.7
2019-03-17T09:33:18.407Z,1008.7
2019-03-17T09:38:18.352Z,1008.5
2019-03-17T09:43:18.492Z,1008.5
2019-03-17T09:48:18.351Z,1008.6
2019-03-17T09:53:17.900Z,1008.3
2019-03-17T09:58:17.897Z,1008.2
2019-03-17T10:03:20.601Z,1008.1
2019-03-17T10:08:18.015Z,1008
2019-03-17T10:13:17.860Z,1008
2019-03-17T10:18:18.222Z,1007.9
2019-03-17T10:23:17.861Z,1007.9
2019-03-17T10:28:18.125Z,1007.8
2019-03-17T10:33:17.877Z,1007.8
2019-03-17T10:38:17.860Z,1007.6
2019-03-17T10:43:17.881Z,1007.5
2019-03-17T10:48:17.803Z,1007.4
2019-03-17T10:53:20.972Z,1007.3
2019-03-17T10:58:17.849Z,1007.1
2019-03-17T11:03:17.859Z,1007.1
2019-03-17T11:08:17.872Z,1007.1
2019-03-17T11:13:18.881Z,1007.1
2019-03-17T11:18:17.872Z,1007
2019-03-17T11:23:17.918Z,1006.9
2019-03-17T11:28:20.708Z,1006.8
2019-03-17T11:33:17.950Z,1006.8
2019-03-17T11:38:20.778Z,1006.7
2019-03-17T11:43:17.912Z,1006.7
2019-03-17T11:48:17.907Z,1006.5
2019-03-17T11:53:17.947Z,1006.5
2019-03-17T11:58:17.955Z,1006.3
2019-03-17T12:03:17.919Z,1006.2
2019-03-17T12:08:17.904Z,1006
2019-03-17T12:13:17.869Z,1005.8
2019-03-17T12:18:17.885Z,1005.6
2019-03-17T12:23:17.927Z,1005.5
2019-03-17T12:28:17.912Z,1005.5
2019-03-17T12:33:17.964Z,1005.4
2019-03-17T12:38:17.927Z,1005.3
2019-03-17T12:43:18.000Z,1005.2
2019-03-17T12:48:17.929Z,1005
2019-03-17T12:53:17.946Z,1004.9
2019-03-17T12:58:17.950Z,1004.8
2019-03-17T13:03:17.891Z,1004.7
2019-03-17T13:08:17.954Z,1004.6
2019-03-17T13:13:17.943Z,1004.6
2019-03-17T13:18:17.948Z,1004.4
2019-03-17T13:23:17.966Z,1004.3
2019-03-17T13:28:17.980Z,1004.3
2019-03-17T13:33:20.736Z,1004.1
2019-03-17T13:38:17.971Z,1004.2
2019-03-17T13:43:17.971Z,1004
2019-03-17T13:48:17.941Z,1004
2019-03-17T13:53:17.970Z,1003.9
2019-03-17T13:58:17.954Z,1003.9
2019-03-17T14:03:17.947Z,1003.8
2019-03-17T14:08:17.954Z,1003.8
2019-03-17T14:13:18.215Z,1003.8
2019-03-17T14:18:17.957Z,1003.7
2019-03-17T14:23:17.964Z,1003.7
2019-03-17T14:28:18.006Z,1003.5
2019-03-17T14:33:17.972Z,1003.5
2019-03-17T14:38:18.032Z,1003.5
2019-03-17T14:43:18.360Z,1003.5
2019-03-17T14:48:18.015Z,1003.6
2019-03-17T14:53:18.007Z,1003.5
2019-03-17T14:58:18.024Z,1003.5
2019-03-17T15:03:18.047Z,1003.5
2019-03-17T15:08:18.027Z,1003.4
2019-03-17T15:13:18.018Z,1003.4
2019-03-17T15:18:18.009Z,1003.4
2019-03-17T15:23:18.072Z,1003.4
2019-03-17T15:28:18.012Z,1003.4
2019-03-17T15:33:18.067Z,1003.5
2019-03-17T15:38:18.118Z,1003.4
2019-03-17T15:43:19.009Z,1003.6
2019-03-17T15:48:18.060Z,1003.6
2019-03-17T15:53:18.029Z,1003.6
2019-03-17T15:58:18.032Z,1003.6
2019-03-17T16:03:18.024Z,1003.7
2019-03-17T16:08:18.015Z,1003.8
2019-03-17T16:13:18.011Z,1003.8
2019-03-17T16:18:18.038Z,1003.8
2019-03-17T16:23:18.059Z,1003.8
2019-03-17T16:28:18.044Z,1003.9
2019-03-17T16:33:18.148Z,1004
2019-03-17T16:38:18.025Z,1004
2019-03-17T16:43:18.046Z,1004.1
2019-03-17T16:48:18.022Z,1004.3
2019-03-17T16:53:18.070Z,1004.3
2019-03-17T16:58:18.087Z,1004.4
2019-03-17T17:03:18.202Z,1004.6
2019-03-17T17:08:18.100Z,1004.6
2019-03-17T17:13:18.096Z,1004.6
2019-03-17T17:18:19.111Z,1004.8
2019-03-17T17:23:18.254Z,1004.8
2019-03-17T17:28:18.062Z,1004.8
2019-03-17T17:33:18.093Z,1005
2019-03-17T17:38:18.085Z,1005
2019-03-17T17:43:18.124Z,1005.1
2019-03-17T17:48:18.120Z,1005.2
2019-03-17T17:53:18.138Z,1005.3
2019-03-17T17:58:18.088Z,1005.4
2019-03-17T18:03:18.129Z,1005.5
2019-03-17T18:08:18.133Z,1005.7
2019-03-17T18:13:18.170Z,1005.6
2019-03-17T18:18:18.160Z,1005.7
2019-03-17T18:23:18.980Z,1005.8
2019-03-17T18:28:18.188Z,1005.7
2019-03-17T18:33:18.196Z,1005.8
2019-03-17T18:38:18.239Z,1006
2019-03-17T18:43:18.238Z,1006.1
2019-03-17T18:48:18.234Z,1005.9
2019-03-17T18:53:18.326Z,1006.1
2019-03-17T18:58:18.221Z,1006
2019-03-17T19:03:18.267Z,1006.3
2019-03-17T19:08:18.195Z,1006.4
2019-03-17T19:13:18.291Z,1006.4
2019-03-17T19:18:18.192Z,1006.5
2019-03-17T19:23:18.173Z,1006.6
2019-03-17T19:28:18.289Z,1006.7
2019-03-17T19:33:18.153Z,1006.9
2019-03-17T19:38:18.497Z,1006.9
2019-03-17T19:43:18.200Z,1007.1
2019-03-17T19:48:18.279Z,1007.3
2019-03-17T19:53:18.585Z,1007.4
2019-03-17T19:58:18.669Z,1008.4
2019-03-17T20:03:18.215Z,1009.1
2019-03-17T20:08:18.238Z,1009.7
2019-03-17T20:13:18.239Z,1010.2
2019-03-17T20:18:18.435Z,1010.9
2019-03-17T20:23:21.752Z,1011.4
2019-03-17T20:28:18.396Z,1011.7
2019-03-17T20:33:18.407Z,1012.2
2019-03-17T20:38:18.388Z,1012.5
2019-03-17T20:43:35.486Z,1012.9
2019-03-17T20:48:18.790Z,1013
2019-03-17T20:53:18.332Z,1013.3
2019-03-17T20:58:18.222Z,1013.6
2019-03-17T21:03:18.390Z,1013.7
2019-03-17T21:08:18.215Z,1014
2019-03-17T21:13:18.354Z,1014.3
2019-03-17T21:18:18.202Z,1014.3
2019-03-17T21:23:18.196Z,1014.5
2019-03-17T21:28:18.250Z,1014.7
2019-03-17T21:33:18.262Z,1014.9
2019-03-17T21:38:18.220Z,1015.1
2019-03-17T21:43:18.351Z,1015.1
2019-03-17T21:48:18.379Z,1015.3
2019-03-17T21:53:18.494Z,1015.4
2019-03-17T21:58:18.497Z,1015.6
2019-03-17T22:16:33.144Z,1015.8
2019-03-17T22:21:33.079Z,1015.8
2019-03-17T22:26:33.086Z,1015.9
2019-03-17T22:31:33.157Z,1016.1
2019-03-17T22:36:33.075Z,1016.2
2019-03-17T22:41:33.322Z,1016.3
2019-03-17T22:46:33.251Z,1016.5
2019-03-17T22:51:33.142Z,1016.5
2019-03-17T22:56:33.109Z,1016.7
2019-03-17T23:01:33.069Z,1016.7
2019-03-17T23:06:33.099Z,1016.7
2019-03-17T23:11:33.095Z,1016.8
2019-03-17T23:16:33.115Z,1016.8
2019-03-17T23:21:33.124Z,1016.8
2019-03-17T23:26:33.294Z,1016.7
2019-03-17T23:31:33.322Z,1016.9
2019-03-17T23:36:33.262Z,1016.9
2019-03-17T23:41:33.293Z,1017
2019-03-17T23:46:33.323Z,1017.1
2019-03-17T23:51:33.356Z,1017.2
2019-03-17T23:56:33.292Z,1017.1
